Time;durP1;ratioP1;P1;durP2;ratioP2;P2;SDS_P1;SDS_P2;PMS_P1;PMS_P2;Temp;Humidity;BMP_temperature;BMP_pressure;BME280_temperature;BME280_humidity;BME280_pressure;Samples;Min_cycle;Max_cycle;Signal;HPM_P1;HPM_P2
2023/12/30 00:02:13;;;;;;;;;;;8.40;99.90;;;;;;5089535;28;19924;-73
2023/12/30 00:04:39;;;;;;;;;;;8.40;99.90;;;;;;5090182;28;20494;-74
2023/12/30 00:07:06;;;;;;;;;;;8.50;99.90;;;;;;5090357;28;19997;-74
2023/12/30 00:09:32;;;;;;;;;;;8.50;99.90;;;;;;5090033;28;19985;-73
2023/12/30 00:11:59;;;;;;;;;;;8.50;99.90;;;;;;5090693;28;20344;-73
2023/12/30 00:14:25;;;;;;;;;;;8.50;99.90;;;;;;5089685;28;19936;-73
2023/12/30 00:16:53;;;;;;;;;;;8.50;99.90;;;;;;5089174;28;19924;-73
2023/12/30 00:19:20;;;;;;;;;;;8.50;99.90;;;;;;5089436;28;21130;-73
2023/12/30 00:21:46;;;;;;;;;;;8.50;99.90;;;;;;5089152;28;19958;-73
2023/12/30 00:24:13;;;;;;;;;;;8.60;99.90;;;;;;5090402;28;19932;-73
2023/12/30 00:26:39;;;;;;;;;;;8.60;99.90;;;;;;5090402;28;20469;-73
2023/12/30 00:29:06;;;;;;;;;;;8.60;99.90;;;;;;5089569;28;19970;-73
2023/12/30 00:31:32;;;;;;;;;;;8.50;99.90;;;;;;5089795;28;20243;-73
2023/12/30 00:34:01;;;;;;;;;;;8.50;99.90;;;;;;5090345;28;20031;-73
2023/12/30 00:36:28;;;;;;;;;;;8.40;99.90;;;;;;5090112;28;20413;-73
2023/12/30 00:38:54;;;;;;;;;;;8.40;99.90;;;;;;5090041;28;20014;-73
2023/12/30 00:41:21;;;;;;;;;;;8.40;99.90;;;;;;5090121;28;19932;-73
2023/12/30 00:43:48;;;;;;;;;;;8.40;99.90;;;;;;5089203;28;19928;-72
2023/12/30 00:46:14;;;;;;;;;;;8.50;99.90;;;;;;5089954;28;19924;-73
2023/12/30 00:48:41;;;;;;;;;;;8.40;99.90;;;;;;5089653;28;20001;-72
2023/12/30 00:51:09;;;;;;;;;;;8.40;99.90;;;;;;5089578;28;19928;-73
2023/12/30 00:53:36;;;;;;;;;;;8.40;99.90;;;;;;5089008;28;19924;-73
2023/12/30 00:56:02;;;;;;;;;;;8.40;99.90;;;;;;5089846;28;20426;-74
2023/12/30 00:58:29;;;;;;;;;;;8.40;99.90;;;;;;5089217;28;19932;-74
2023/12/30 01:00:55;;;;;;;;;;;8.40;99.90;;;;;;5089142;28;20377;-73
2023/12/30 01:03:22;;;;;;;;;;;8.40;99.90;;;;;;5089322;28;19977;-73
2023/12/30 01:05:48;;;;;;;;;;;8.30;99.90;;;;;;5088933;28;20379;-73
2023/12/30 01:08:16;;;;;;;;;;;8.40;99.90;;;;;;5088919;28;19924;-74
2023/12/30 01:10:43;;;;;;;;;;;8.30;99.90;;;;;;5089002;28;20439;-73
2023/12/30 01:13:09;;;;;;;;;;;8.30;99.90;;;;;;5088814;28;19973;-73
2023/12/30 01:15:36;;;;;;;;;;;8.40;99.90;;;;;;5088755;28;19938;-73
2023/12/30 01:18:02;;;;;;;;;;;8.40;99.90;;;;;;5088583;28;19932;-73
2023/12/30 01:20:29;;;;;;;;;;;8.40;99.90;;;;;;5088428;28;19924;-72
2023/12/30 01:22:55;;;;;;;;;;;8.40;99.90;;;;;;5089043;28;19924;-73
2023/12/30 01:25:23;;;;;;;;;;;8.30;99.90;;;;;;5089305;28;19936;-74
2023/12/30 01:27:50;;;;;;;;;;;8.40;99.90;;;;;;5088682;28;19928;-73
2023/12/30 01:30:16;;;;;;;;;;;8.30;99.90;;;;;;5087828;28;19985;-74
2023/12/30 01:32:43;;;;;;;;;;;8.30;99.90;;;;;;5089433;28;19970;-71
2023/12/30 01:35:09;;;;;;;;;;;8.30;99.90;;;;;;5088750;28;20349;-73
2023/12/30 01:37:36;;;;;;;;;;;8.30;99.90;;;;;;5088745;28;19977;-73
2023/12/30 01:40:03;;;;;;;;;;;8.30;99.90;;;;;;5088823;28;20271;-75
2023/12/30 01:42:31;;;;;;;;;;;8.30;99.90;;;;;;5088445;28;20416;-73
2023/12/30 01:44:57;;;;;;;;;;;8.20;99.90;;;;;;5088747;28;19923;-73
2023/12/30 01:47:24;;;;;;;;;;;8.20;99.90;;;;;;5088359;28;19928;-74
2023/12/30 01:49:50;;;;;;;;;;;8.20;99.90;;;;;;5088415;28;20460;-73
2023/12/30 01:52:17;;;;;;;;;;;8.30;99.90;;;;;;5088950;28;19932;-73
2023/12/30 01:54:43;;;;;;;;;;;8.30;99.90;;;;;;5087382;28;19962;-74
2023/12/30 01:57:11;;;;;;;;;;;8.30;99.90;;;;;;5087575;28;19985;-73
2023/12/30 01:59:38;;;;;;;;;;;8.30;99.90;;;;;;5087407;28;20344;-73
2023/12/30 02:02:05;;;;;;;;;;;8.30;99.90;;;;;;5087096;28;19924;-72
2023/12/30 02:04:32;;;;;;;;;;;8.30;99.90;;;;;;5087332;28;19932;-72
2023/12/30 02:06:58;;;;;;;;;;;8.30;99.90;;;;;;5087982;28;19936;-73
2023/12/30 02:09:25;;;;;;;;;;;8.30;99.90;;;;;;5087123;28;19924;-73
2023/12/30 02:11:51;;;;;;;;;;;8.40;99.90;;;;;;5088122;28;19924;-72
2023/12/30 02:14:25;;;;;;;;;;;8.30;99.90;;;;;;5087979;28;19932;-72
2023/12/30 02:16:52;;;;;;;;;;;8.40;99.90;;;;;;5087997;28;19932;-73
2023/12/30 02:19:19;;;;;;;;;;;8.40;99.90;;;;;;5088057;28;20463;-71
2023/12/30 02:21:46;;;;;;;;;;;8.40;99.90;;;;;;5088034;28;19978;-71
2023/12/30 02:24:14;;;;;;;;;;;8.40;99.90;;;;;;5088093;28;20340;-71
2023/12/30 02:26:40;;;;;;;;;;;8.40;99.90;;;;;;5087223;28;19932;-72
2023/12/30 02:29:07;;;;;;;;;;;8.40;99.90;;;;;;5087607;28;19924;-71
2023/12/30 02:31:33;;;;;;;;;;;8.50;99.90;;;;;;5086618;28;19978;-72
2023/12/30 02:34:00;;;;;;;;;;;8.50;99.90;;;;;;5088640;28;19932;-71
2023/12/30 02:36:26;;;;;;;;;;;8.40;99.90;;;;;;5086768;28;19969;-71
2023/12/30 02:38:53;;;;;;;;;;;8.40;99.90;;;;;;5086926;28;20002;-72
2023/12/30 02:41:20;;;;;;;;;;;8.40;99.90;;;;;;5087418;28;19935;-72
2023/12/30 02:43:51;;;;;;;;;;;8.50;99.90;;;;;;5087343;28;20375;-72
2023/12/30 02:46:18;;;;;;;;;;;8.50;99.90;;;;;;5086946;28;19958;-73
2023/12/30 02:48:44;;;;;;;;;;;8.50;99.90;;;;;;5087426;28;20398;-72
2023/12/30 02:51:14;;;;;;;;;;;8.50;99.90;;;;;;5087270;28;19932;-72
2023/12/30 02:53:40;;;;;;;;;;;8.40;99.90;;;;;;5086956;28;19924;-72
2023/12/30 02:56:07;;;;;;;;;;;8.40;99.90;;;;;;5087125;28;20302;-72
2023/12/30 02:58:35;;;;;;;;;;;8.40;99.90;;;;;;5087030;28;19936;-72
2023/12/30 03:01:02;;;;;;;;;;;8.40;99.90;;;;;;5086682;28;20312;-72
2023/12/30 03:03:28;;;;;;;;;;;8.40;99.90;;;;;;5087112;28;19936;-72
2023/12/30 03:05:55;;;;;;;;;;;8.40;99.90;;;;;;5087563;28;19928;-72
2023/12/30 03:08:21;;;;;;;;;;;8.30;99.90;;;;;;5087281;28;19977;-73
2023/12/30 03:10:48;;;;;;;;;;;8.30;99.90;;;;;;5088033;28;19936;-73
2023/12/30 03:13:14;;;;;;;;;;;8.30;99.90;;;;;;5086409;28;20328;-72
2023/12/30 03:15:42;;;;;;;;;;;8.30;99.90;;;;;;5086154;28;19928;-72
2023/12/30 03:18:09;;;;;;;;;;;8.30;99.90;;;;;;5086247;28;19931;-72
2023/12/30 03:20:35;;;;;;;;;;;8.20;99.90;;;;;;5085778;28;20360;-73
2023/12/30 03:23:01;;;;;;;;;;;8.20;99.90;;;;;;5087664;28;19936;-72
2023/12/30 03:25:28;;;;;;;;;;;8.20;99.90;;;;;;5087533;28;19923;-72
2023/12/30 03:27:55;;;;;;;;;;;8.20;99.90;;;;;;5087458;28;19970;-73
2023/12/30 03:30:21;;;;;;;;;;;8.20;99.90;;;;;;5086175;28;19977;-72
2023/12/30 03:32:49;;;;;;;;;;;8.20;99.90;;;;;;5086930;28;20414;-72
2023/12/30 03:35:16;;;;;;;;;;;8.10;99.90;;;;;;5087291;28;19947;-72
2023/12/30 03:37:43;;;;;;;;;;;8.10;99.90;;;;;;5086885;28;19940;-72
2023/12/30 03:40:10;;;;;;;;;;;8.10;99.90;;;;;;5087029;28;19924;-72
2023/12/30 03:42:36;;;;;;;;;;;8.10;99.90;;;;;;5086451;28;19978;-71
2023/12/30 03:45:04;;;;;;;;;;;8.10;99.90;;;;;;5086967;28;19990;-73
2023/12/30 03:47:31;;;;;;;;;;;8.10;99.90;;;;;;5086089;28;19954;-72
2023/12/30 03:49:59;;;;;;;;;;;8.10;99.90;;;;;;5086120;28;19938;-72
2023/12/30 03:52:25;;;;;;;;;;;8.20;99.90;;;;;;5086541;28;19924;-72
2023/12/30 03:54:53;;;;;;;;;;;8.20;99.90;;;;;;5085101;28;19986;-73
2023/12/30 03:57:20;;;;;;;;;;;8.10;99.90;;;;;;5086336;28;20290;-72
2023/12/30 03:59:46;;;;;;;;;;;8.10;99.90;;;;;;5085415;28;19928;-72
2023/12/30 04:02:13;;;;;;;;;;;8.10;99.90;;;;;;5085582;28;19936;-73
2023/12/30 04:04:41;;;;;;;;;;;8.10;99.90;;;;;;5086908;28;19931;-72
2023/12/30 04:07:09;;;;;;;;;;;8.10;99.90;;;;;;5086223;28;19933;-71
2023/12/30 04:09:35;;;;;;;;;;;8.20;99.90;;;;;;5085732;28;20283;-72
2023/12/30 04:12:01;;;;;;;;;;;8.20;99.90;;;;;;5086807;28;19932;-73
2023/12/30 04:14:28;;;;;;;;;;;8.10;99.90;;;;;;5086392;28;20683;-72
2023/12/30 04:16:54;;;;;;;;;;;8.10;99.90;;;;;;5086696;28;20387;-72
2023/12/30 04:19:22;;;;;;;;;;;8.00;99.90;;;;;;5086356;28;20391;-72
2023/12/30 04:21:48;;;;;;;;;;;8.00;99.90;;;;;;5085974;28;19935;-72
2023/12/30 04:24:16;;;;;;;;;;;7.90;99.90;;;;;;5087770;28;19928;-71
2023/12/30 04:26:43;;;;;;;;;;;7.90;99.90;;;;;;5089890;28;19978;-72
2023/12/30 04:29:09;;;;;;;;;;;7.90;99.90;;;;;;5089107;28;19981;-72
2023/12/30 04:31:36;;;;;;;;;;;7.90;99.90;;;;;;5089049;28;19993;-72
2023/12/30 04:34:03;;;;;;;;;;;7.90;99.90;;;;;;5090888;28;19936;-72
2023/12/30 04:36:29;;;;;;;;;;;7.90;99.90;;;;;;5089576;28;19951;-72
2023/12/30 04:38:56;;;;;;;;;;;7.80;99.90;;;;;;5089546;28;19977;-71
2023/12/30 04:41:23;;;;;;;;;;;7.80;99.90;;;;;;5089877;28;19951;-73
2023/12/30 04:43:50;;;;;;;;;;;7.80;99.90;;;;;;5089985;28;19928;-72
2023/12/30 04:46:17;;;;;;;;;;;7.80;99.90;;;;;;5089792;28;19992;-72
2023/12/30 04:48:43;;;;;;;;;;;7.80;99.90;;;;;;5089164;28;19962;-72
2023/12/30 04:51:10;;;;;;;;;;;7.80;99.90;;;;;;5089607;28;20339;-72
2023/12/30 04:53:36;;;;;;;;;;;7.80;99.90;;;;;;5089627;28;19932;-72
2023/12/30 04:56:04;;;;;;;;;;;7.70;99.90;;;;;;5090001;28;19993;-71
2023/12/30 04:58:32;;;;;;;;;;;7.80;99.90;;;;;;5089200;28;20018;-72
2023/12/30 05:00:58;;;;;;;;;;;7.80;99.90;;;;;;5089799;28;19930;-72
2023/12/30 05:03:25;;;;;;;;;;;7.80;99.90;;;;;;5088907;28;19961;-72
2023/12/30 05:05:52;;;;;;;;;;;7.80;99.90;;;;;;5089516;28;19924;-71
2023/12/30 05:08:18;;;;;;;;;;;7.90;99.90;;;;;;5089928;28;19946;-72
2023/12/30 05:10:45;;;;;;;;;;;7.90;99.90;;;;;;5089080;28;19936;-72
2023/12/30 05:13:11;;;;;;;;;;;7.90;99.90;;;;;;5089119;28;20367;-72
2023/12/30 05:15:39;;;;;;;;;;;7.70;99.90;;;;;;5088696;28;19970;-72
2023/12/30 05:18:06;;;;;;;;;;;7.70;99.90;;;;;;5088869;28;19985;-72
2023/12/30 05:20:32;;;;;;;;;;;7.60;99.90;;;;;;5088844;28;19924;-72
2023/12/30 05:22:59;;;;;;;;;;;7.50;99.90;;;;;;5088897;28;19924;-72
2023/12/30 05:25:26;;;;;;;;;;;7.50;99.90;;;;;;5089200;28;20336;-72
2023/12/30 05:27:52;;;;;;;;;;;7.40;99.90;;;;;;5089546;28;19978;-72
2023/12/30 05:30:19;;;;;;;;;;;7.40;99.90;;;;;;5088681;28;19928;-73
2023/12/30 05:32:46;;;;;;;;;;;7.30;99.90;;;;;;5088849;28;19932;-72
2023/12/30 05:35:13;;;;;;;;;;;7.30;99.90;;;;;;5088753;28;19985;-72
2023/12/30 05:37:40;;;;;;;;;;;7.30;99.90;;;;;;5088691;28;20519;-72
2023/12/30 05:40:08;;;;;;;;;;;7.30;99.90;;;;;;5089000;28;19935;-72
2023/12/30 05:42:34;;;;;;;;;;;7.40;99.90;;;;;;5089435;28;19930;-72
2023/12/30 05:45:01;;;;;;;;;;;7.40;99.90;;;;;;5088813;28;19936;-72
2023/12/30 05:47:27;;;;;;;;;;;7.40;99.90;;;;;;5086818;28;19928;-72
2023/12/30 05:49:55;;;;;;;;;;;7.50;99.90;;;;;;5089214;28;19977;-73
2023/12/30 05:52:22;;;;;;;;;;;7.50;99.90;;;;;;5088865;28;19930;-72
2023/12/30 05:54:48;;;;;;;;;;;7.50;99.90;;;;;;5087021;28;19924;-72
2023/12/30 05:57:15;;;;;;;;;;;7.50;99.90;;;;;;5088304;28;19936;-72
2023/12/30 05:59:41;;;;;;;;;;;7.60;99.90;;;;;;5087992;28;20361;-72
2023/12/30 06:02:08;;;;;;;;;;;7.60;99.90;;;;;;5087804;28;19924;-72
2023/12/30 06:04:35;;;;;;;;;;;7.60;99.90;;;;;;5088466;28;19932;-73
2023/12/30 06:07:02;;;;;;;;;;;7.50;99.90;;;;;;5088583;28;19993;-72
2023/12/30 06:09:29;;;;;;;;;;;7.60;99.90;;;;;;5088295;28;19977;-73
2023/12/30 06:11:55;;;;;;;;;;;7.60;99.90;;;;;;5088234;28;21115;-72
2023/12/30 06:14:22;;;;;;;;;;;7.70;99.90;;;;;;5088924;28;19924;-72
2023/12/30 06:16:49;;;;;;;;;;;7.70;99.90;;;;;;5087600;28;19935;-71
2023/12/30 06:19:16;;;;;;;;;;;7.70;99.90;;;;;;5088061;28;20015;-71
2023/12/30 06:21:42;;;;;;;;;;;7.70;99.90;;;;;;5088133;28;19981;-71
2023/12/30 06:24:10;;;;;;;;;;;7.70;99.90;;;;;;5087115;28;19928;-72
2023/12/30 06:26:37;;;;;;;;;;;7.70;99.90;;;;;;5087955;28;19936;-72
2023/12/30 06:29:03;;;;;;;;;;;7.70;99.90;;;;;;5087146;28;20380;-71
2023/12/30 06:31:30;;;;;;;;;;;7.70;99.90;;;;;;5086804;28;19940;-72
2023/12/30 06:33:56;;;;;;;;;;;7.60;99.90;;;;;;5087191;28;20410;-72
2023/12/30 06:36:23;;;;;;;;;;;7.60;99.90;;;;;;5087426;28;19928;-72
2023/12/30 06:38:50;;;;;;;;;;;7.70;99.90;;;;;;5087002;28;19932;-72
2023/12/30 06:41:19;;;;;;;;;;;7.80;99.90;;;;;;5087006;28;20433;-73
2023/12/30 06:43:46;;;;;;;;;;;7.80;99.90;;;;;;5087763;28;19932;-72
2023/12/30 06:46:13;;;;;;;;;;;7.90;99.90;;;;;;5086566;28;19935;-72
2023/12/30 06:48:40;;;;;;;;;;;7.90;99.90;;;;;;5086814;28;19943;-73
2023/12/30 06:51:09;;;;;;;;;;;7.90;99.90;;;;;;5087560;28;19977;-72
2023/12/30 06:53:36;;;;;;;;;;;7.90;99.90;;;;;;5087204;28;20323;-72
2023/12/30 06:56:02;;;;;;;;;;;7.90;99.90;;;;;;5086997;28;19947;-71
2023/12/30 06:58:30;;;;;;;;;;;7.90;99.90;;;;;;5087561;28;19985;-72
2023/12/30 07:00:57;;;;;;;;;;;7.90;99.90;;;;;;5086978;28;19928;-71
2023/12/30 07:03:24;;;;;;;;;;;7.90;99.90;;;;;;5087901;28;19924;-72
2023/12/30 07:05:50;;;;;;;;;;;7.90;99.90;;;;;;5087807;28;19961;-71
2023/12/30 07:08:17;;;;;;;;;;;7.90;99.90;;;;;;5086837;28;19927;-72
2023/12/30 07:10:43;;;;;;;;;;;7.90;99.90;;;;;;5086962;28;19932;-72
2023/12/30 07:13:10;;;;;;;;;;;7.80;99.90;;;;;;5087055;28;20481;-72
2023/12/30 07:15:37;;;;;;;;;;;7.80;99.90;;;;;;5086855;28;19974;-71
2023/12/30 07:18:04;;;;;;;;;;;7.70;99.90;;;;;;5087474;28;20386;-71
2023/12/30 07:20:31;;;;;;;;;;;7.80;99.90;;;;;;5086282;28;19936;-71
2023/12/30 07:22:57;;;;;;;;;;;7.90;99.90;;;;;;5087731;28;19986;-71
2023/12/30 07:25:24;;;;;;;;;;;7.90;99.90;;;;;;5087399;28;19960;-72
2023/12/30 07:27:51;;;;;;;;;;;7.90;99.90;;;;;;5086603;28;19940;-73
2023/12/30 07:30:17;;;;;;;;;;;8.00;99.90;;;;;;5085911;28;20384;-72
2023/12/30 07:32:45;;;;;;;;;;;8.00;99.90;;;;;;5086768;28;19932;-72
2023/12/30 07:35:11;;;;;;;;;;;8.00;99.90;;;;;;5087495;28;20425;-73
2023/12/30 07:37:38;;;;;;;;;;;8.10;99.90;;;;;;5086729;28;19936;-72
2023/12/30 07:40:06;;;;;;;;;;;8.10;99.90;;;;;;5087045;28;19930;-72
2023/12/30 07:42:32;;;;;;;;;;;8.00;99.90;;;;;;5085893;28;19932;-72
2023/12/30 07:44:59;;;;;;;;;;;8.00;99.90;;;;;;5086894;28;20792;-72
2023/12/30 07:47:26;;;;;;;;;;;8.00;99.90;;;;;;5086475;28;19981;-72
2023/12/30 07:49:54;;;;;;;;;;;7.90;99.90;;;;;;5086421;28;19924;-73
2023/12/30 07:52:20;;;;;;;;;;;7.90;99.90;;;;;;5087004;28;20037;-72
2023/12/30 07:54:47;;;;;;;;;;;7.90;99.90;;;;;;5084570;28;19954;-73
2023/12/30 07:57:13;;;;;;;;;;;7.90;99.90;;;;;;5086368;28;19936;-73
2023/12/30 07:59:40;;;;;;;;;;;7.90;99.90;;;;;;5088822;28;19928;-73
2023/12/30 08:02:07;;;;;;;;;;;7.80;99.90;;;;;;5091033;28;20372;-73
2023/12/30 08:04:34;;;;;;;;;;;7.90;99.90;;;;;;5090461;28;19940;-73
2023/12/30 08:07:01;;;;;;;;;;;7.90;99.90;;;;;;5090913;28;19939;-73
2023/12/30 08:09:28;;;;;;;;;;;7.80;99.90;;;;;;5090227;28;19928;-73
2023/12/30 08:11:54;;;;;;;;;;;7.90;99.90;;;;;;5088663;28;19936;-73
2023/12/30 08:14:21;;;;;;;;;;;7.90;99.90;;;;;;5089659;28;19924;-73
2023/12/30 08:16:47;;;;;;;;;;;7.90;99.90;;;;;;5089265;28;19932;-73
2023/12/30 08:19:14;;;;;;;;;;;7.90;99.90;;;;;;5090630;28;19985;-73
2023/12/30 08:21:40;;;;;;;;;;;7.90;99.90;;;;;;5090644;28;20275;-74
2023/12/30 08:24:10;;;;;;;;;;;8.00;99.90;;;;;;5089172;28;19970;-73
2023/12/30 08:26:36;;;;;;;;;;;8.00;99.90;;;;;;5090207;28;19964;-73
2023/12/30 08:29:05;;;;;;;;;;;8.10;99.90;;;;;;5089156;28;19932;-74
2023/12/30 08:31:34;;;;;;;;;;;8.20;99.90;;;;;;5089333;28;19936;-74
2023/12/30 08:34:01;;;;;;;;;;;8.20;99.90;;;;;;5089491;28;19928;-73
2023/12/30 08:36:29;;;;;;;;;;;8.20;99.90;;;;;;5090085;28;19924;-74
2023/12/30 08:38:55;;;;;;;;;;;8.20;99.90;;;;;;5089040;28;20013;-73
2023/12/30 08:41:27;;;;;;;;;;;8.20;99.90;;;;;;5089771;28;20443;-73
2023/12/30 08:43:55;;;;;;;;;;;8.20;99.90;;;;;;5089407;28;20308;-73
2023/12/30 08:46:22;;;;;;;;;;;8.10;99.90;;;;;;5089629;28;19932;-73
2023/12/30 08:48:48;;;;;;;;;;;8.10;99.90;;;;;;5089452;28;20352;-72
2023/12/30 08:51:15;;;;;;;;;;;8.10;99.90;;;;;;5089766;28;19970;-74
2023/12/30 08:53:42;;;;;;;;;;;8.10;99.90;;;;;;5088556;28;20305;-73
2023/12/30 08:56:08;;;;;;;;;;;8.10;99.90;;;;;;5088207;28;19932;-73
2023/12/30 08:58:36;;;;;;;;;;;8.10;99.90;;;;;;5088803;28;20348;-73
2023/12/30 09:01:03;;;;;;;;;;;7.80;99.90;;;;;;5089451;28;19939;-72
2023/12/30 09:03:30;;;;;;;;;;;8.10;99.90;;;;;;5089535;28;19963;-73
2023/12/30 09:05:56;;;;;;;;;;;8.10;99.90;;;;;;5089176;28;20375;-73
2023/12/30 09:08:23;;;;;;;;;;;8.10;99.90;;;;;;5089769;28;19933;-73
2023/12/30 09:10:49;;;;;;;;;;;8.10;99.90;;;;;;5089010;28;20023;-73
2023/12/30 09:13:16;;;;;;;;;;;8.10;99.90;;;;;;5089587;28;19969;-73
2023/12/30 09:15:44;;;;;;;;;;;8.10;99.90;;;;;;5088055;28;19931;-72
2023/12/30 09:18:10;;;;;;;;;;;8.10;99.90;;;;;;5088903;28;19977;-73
2023/12/30 09:20:37;;;;;;;;;;;8.10;99.90;;;;;;5090797;28;19981;-73
2023/12/30 09:23:03;;;;;;;;;;;8.10;99.90;;;;;;5087486;28;20409;-73
2023/12/30 09:25:30;;;;;;;;;;;8.20;99.90;;;;;;5088552;28;19928;-73
2023/12/30 09:27:57;;;;;;;;;;;8.20;99.90;;;;;;5086610;28;19928;-73
2023/12/30 09:30:23;;;;;;;;;;;8.20;99.90;;;;;;5087864;28;20007;-73
2023/12/30 09:32:51;;;;;;;;;;;8.30;99.90;;;;;;5088249;28;19928;-73
2023/12/30 09:35:17;;;;;;;;;;;8.30;99.90;;;;;;5087999;28;19985;-73
2023/12/30 09:37:44;;;;;;;;;;;8.40;99.90;;;;;;5088865;28;20439;-73
2023/12/30 09:40:10;;;;;;;;;;;8.40;99.90;;;;;;5088716;28;19928;-73
2023/12/30 09:42:38;;;;;;;;;;;8.40;99.90;;;;;;5088463;28;19936;-73
2023/12/30 09:45:05;;;;;;;;;;;8.40;99.90;;;;;;5089143;28;19940;-73
2023/12/30 09:47:32;;;;;;;;;;;8.50;99.90;;;;;;5088335;28;19932;-73
2023/12/30 09:50:00;;;;;;;;;;;8.50;99.90;;;;;;5088599;28;19989;-72
2023/12/30 09:52:27;;;;;;;;;;;8.60;99.90;;;;;;5089176;28;20029;-72
2023/12/30 09:54:53;;;;;;;;;;;8.70;99.90;;;;;;5088310;28;19932;-73
2023/12/30 09:57:20;;;;;;;;;;;8.80;99.90;;;;;;5088017;28;20363;-73
2023/12/30 09:59:48;;;;;;;;;;;8.80;99.90;;;;;;5087446;28;19932;-73
2023/12/30 10:02:14;;;;;;;;;;;8.90;99.90;;;;;;5087153;28;19932;-73
2023/12/30 10:04:41;;;;;;;;;;;9.00;99.90;;;;;;5088290;28;19954;-73
2023/12/30 10:07:10;;;;;;;;;;;9.10;99.90;;;;;;5088463;28;19973;-74
2023/12/30 10:09:37;;;;;;;;;;;9.20;99.90;;;;;;5088440;28;19932;-73
2023/12/30 10:12:03;;;;;;;;;;;9.30;99.90;;;;;;5087579;28;19961;-74
2023/12/30 10:14:30;;;;;;;;;;;9.50;99.90;;;;;;5088246;28;19924;-74
2023/12/30 10:16:56;;;;;;;;;;;9.60;99.90;;;;;;5086997;28;19924;-73
2023/12/30 10:19:23;;;;;;;;;;;9.70;99.90;;;;;;5086997;28;19985;-72
2023/12/30 10:21:49;;;;;;;;;;;9.70;99.90;;;;;;5086172;28;20335;-73
2023/12/30 10:24:17;;;;;;;;;;;9.80;99.90;;;;;;5087794;28;19932;-73
2023/12/30 10:26:44;;;;;;;;;;;9.90;99.90;;;;;;5087509;28;19924;-73
2023/12/30 10:29:11;;;;;;;;;;;10.10;99.90;;;;;;5087780;28;19932;-73
2023/12/30 10:31:38;;;;;;;;;;;10.20;99.90;;;;;;5087587;28;20459;-73
2023/12/30 10:34:05;;;;;;;;;;;10.30;99.90;;;;;;5087430;28;20381;-73
2023/12/30 10:36:32;;;;;;;;;;;10.40;99.90;;;;;;5087707;28;19959;-72
2023/12/30 10:38:59;;;;;;;;;;;10.50;99.90;;;;;;5087815;28;19982;-73
2023/12/30 10:41:27;;;;;;;;;;;10.60;99.90;;;;;;5087612;28;19935;-73
2023/12/30 10:43:54;;;;;;;;;;;10.60;99.90;;;;;;5087630;28;19932;-73
2023/12/30 10:46:21;;;;;;;;;;;10.70;99.90;;;;;;5087440;28;19997;-73
2023/12/30 10:48:49;;;;;;;;;;;10.70;99.90;;;;;;5087111;28;19932;-73
2023/12/30 10:51:16;;;;;;;;;;;10.90;99.90;;;;;;5087495;28;19924;-73
2023/12/30 10:53:45;;;;;;;;;;;11.10;99.90;;;;;;5087839;28;19993;-73
2023/12/30 10:56:15;;;;;;;;;;;11.20;99.90;;;;;;5086871;28;19924;-73
2023/12/30 10:58:44;;;;;;;;;;;11.20;99.90;;;;;;5086540;28;19967;-72
2023/12/30 11:01:10;;;;;;;;;;;11.10;99.90;;;;;;5086736;28;19932;-73
2023/12/30 11:03:37;;;;;;;;;;;11.10;99.90;;;;;;5087277;28;20196;-73
2023/12/30 11:06:08;;;;;;;;;;;11.00;99.90;;;;;;5087873;28;19924;-73
2023/12/30 11:08:35;;;;;;;;;;;11.00;99.90;;;;;;5087156;28;20301;-72
2023/12/30 11:11:02;;;;;;;;;;;11.20;99.90;;;;;;5087769;28;19926;-72
2023/12/30 11:13:34;;;;;;;;;;;11.50;99.90;;;;;;5086851;28;19932;-73
2023/12/30 11:16:11;;;;;;;;;;;11.60;99.90;;;;;;5087041;28;19989;-73
2023/12/30 11:18:51;;;;;;;;;;;11.80;99.90;;;;;;5085505;28;19982;-73
2023/12/30 11:21:32;;;;;;;;;;;12.20;99.90;;;;;;5086389;28;19931;-73
2023/12/30 11:23:59;;;;;;;;;;;12.20;99.90;;;;;;5085605;28;19932;-73
2023/12/30 11:26:27;;;;;;;;;;;12.20;99.90;;;;;;5088768;28;20025;-74
2023/12/30 11:28:54;;;;;;;;;;;11.90;99.90;;;;;;5086127;28;19928;-73
2023/12/30 11:31:30;;;;;;;;;;;11.70;99.90;;;;;;5086277;28;19936;-74
2023/12/30 11:33:57;;;;;;;;;;;11.50;99.90;;;;;;5089705;28;20352;-74
2023/12/30 11:36:24;;;;;;;;;;;11.40;99.90;;;;;;5091242;28;19924;-74
2023/12/30 11:38:52;;;;;;;;;;;11.30;99.90;;;;;;5091028;28;20029;-74
2023/12/30 11:41:19;;;;;;;;;;;11.40;99.90;;;;;;5091427;28;20317;-74
2023/12/30 11:43:46;;;;;;;;;;;11.50;99.90;;;;;;5091392;28;19974;-74
2023/12/30 11:46:13;;;;;;;;;;;11.70;99.90;;;;;;5090803;28;20390;-74
2023/12/30 11:48:42;;;;;;;;;;;11.80;99.90;;;;;;5090062;28;19936;-74
2023/12/30 11:51:09;;;;;;;;;;;11.90;99.90;;;;;;5089967;28;20402;-74
2023/12/30 11:53:35;;;;;;;;;;;12.10;99.90;;;;;;5090195;28;19989;-75
2023/12/30 11:56:02;;;;;;;;;;;12.20;99.90;;;;;;5090039;28;19932;-74
2023/12/30 11:58:29;;;;;;;;;;;12.20;99.90;;;;;;5090975;28;19924;-74
2023/12/30 12:00:55;;;;;;;;;;;12.10;99.90;;;;;;5090214;28;19977;-74
2023/12/30 12:03:22;;;;;;;;;;;12.10;99.90;;;;;;5090467;28;19932;-74
2023/12/30 12:05:50;;;;;;;;;;;12.20;99.90;;;;;;5091190;28;19932;-74
2023/12/30 12:08:16;;;;;;;;;;;12.40;99.90;;;;;;5090059;28;19928;-74
2023/12/30 12:10:43;;;;;;;;;;;12.60;99.90;;;;;;5089262;28;20447;-74
2023/12/30 12:13:11;;;;;;;;;;;12.80;99.90;;;;;;5088081;28;19985;-74
2023/12/30 12:15:39;;;;;;;;;;;13.10;99.90;;;;;;5089744;28;19928;-74
2023/12/30 12:18:05;;;;;;;;;;;13.10;99.90;;;;;;5090283;28;19985;-74
2023/12/30 12:20:37;;;;;;;;;;;13.20;99.90;;;;;;5089501;28;19924;-74
2023/12/30 12:23:05;;;;;;;;;;;13.40;99.90;;;;;;5089480;28;20011;-74
2023/12/30 12:25:33;;;;;;;;;;;13.30;99.90;;;;;;5090213;28;20389;-74
2023/12/30 12:27:59;;;;;;;;;;;13.20;99.90;;;;;;5089169;28;19977;-74
2023/12/30 12:30:26;;;;;;;;;;;13.10;99.90;;;;;;5089928;28;20279;-74
2023/12/30 12:32:55;;;;;;;;;;;13.10;99.90;;;;;;5089907;28;19928;-74
2023/12/30 12:35:22;;;;;;;;;;;13.20;99.90;;;;;;5089627;28;19927;-74
2023/12/30 12:37:48;;;;;;;;;;;13.10;99.90;;;;;;5089842;28;19932;-74
2023/12/30 12:40:16;;;;;;;;;;;12.90;99.90;;;;;;5089652;28;21039;-74
2023/12/30 12:42:42;;;;;;;;;;;12.80;99.90;;;;;;5089030;28;20355;-74
2023/12/30 12:45:10;;;;;;;;;;;12.80;99.90;;;;;;5088597;28;19954;-74
2023/12/30 12:47:36;;;;;;;;;;;12.50;99.90;;;;;;5089134;28;19930;-74
2023/12/30 12:50:04;;;;;;;;;;;12.50;99.90;;;;;;5089395;28;19931;-75
2023/12/30 12:52:30;;;;;;;;;;;12.60;99.90;;;;;;5089474;28;20368;-74
2023/12/30 12:54:57;;;;;;;;;;;12.80;99.90;;;;;;5089280;28;19932;-74
2023/12/30 12:57:25;;;;;;;;;;;12.80;99.90;;;;;;5089219;28;20394;-73
2023/12/30 12:59:52;;;;;;;;;;;12.80;99.90;;;;;;5088180;28;20024;-74
2023/12/30 13:02:18;;;;;;;;;;;12.90;99.90;;;;;;5090045;28;19932;-74
2023/12/30 13:04:45;;;;;;;;;;;12.80;99.90;;;;;;5088747;28;20437;-73
2023/12/30 13:07:12;;;;;;;;;;;12.70;99.90;;;;;;5089513;28;20061;-74
2023/12/30 13:09:52;;;;;;;;;;;12.70;99.90;;;;;;5089191;28;19976;-74
2023/12/30 13:12:19;;;;;;;;;;;12.60;99.90;;;;;;5089269;28;19932;-74
2023/12/30 13:14:47;;;;;;;;;;;12.70;99.90;;;;;;5087455;28;20029;-74
2023/12/30 13:17:14;;;;;;;;;;;12.70;99.90;;;;;;5087610;28;19936;-73
2023/12/30 13:19:40;;;;;;;;;;;12.50;99.90;;;;;;5085461;28;19936;-73
2023/12/30 13:22:07;;;;;;;;;;;12.20;99.90;;;;;;5086221;28;20006;-72
2023/12/30 13:24:33;;;;;;;;;;;11.90;99.90;;;;;;5087156;28;19932;-73
2023/12/30 13:27:00;;;;;;;;;;;11.80;99.90;;;;;;5087798;28;20021;-73
2023/12/30 13:29:26;;;;;;;;;;;11.80;99.90;;;;;;5087934;28;19977;-73
2023/12/30 13:31:54;;;;;;;;;;;11.90;99.90;;;;;;5087708;28;19936;-72
2023/12/30 13:34:21;;;;;;;;;;;11.90;99.90;;;;;;5088028;28;20460;-72
2023/12/30 13:36:48;;;;;;;;;;;12.00;99.90;;;;;;5087904;28;19932;-73
2023/12/30 13:39:15;;;;;;;;;;;12.00;99.90;;;;;;5088143;28;19936;-74
2023/12/30 13:41:42;;;;;;;;;;;12.10;99.90;;;;;;5087454;28;20013;-73
2023/12/30 13:44:10;;;;;;;;;;;12.00;99.90;;;;;;5087706;28;19985;-72
2023/12/30 13:46:57;;;;;;;;;;;12.00;99.90;;;;;;5087699;28;19935;-72
2023/12/30 13:49:47;;;;;;;;;;;12.10;99.90;;;;;;5087962;28;19939;-72
2023/12/30 13:52:15;;;;;;;;;;;12.10;99.90;;;;;;5087844;28;19927;-73
2023/12/30 13:54:44;;;;;;;;;;;12.00;99.90;;;;;;5087381;28;19954;-73
2023/12/30 13:57:13;;;;;;;;;;;11.90;99.90;;;;;;5087058;28;21151;-71
2023/12/30 13:59:44;;;;;;;;;;;11.90;99.90;;;;;;5087193;28;19928;-70
2023/12/30 14:02:11;;;;;;;;;;;11.90;99.90;;;;;;5087909;28;19924;-71
2023/12/30 14:04:40;;;;;;;;;;;11.90;99.90;;;;;;5088144;28;19932;-70
2023/12/30 14:07:12;;;;;;;;;;;11.90;99.90;;;;;;5087165;28;20020;-71
2023/12/30 14:09:47;;;;;;;;;;;11.90;99.90;;;;;;5085721;28;19928;-71
2023/12/30 14:12:14;;;;;;;;;;;11.90;99.90;;;;;;5086851;28;19939;-71
2023/12/30 14:14:44;;;;;;;;;;;12.00;99.90;;;;;;5086797;28;20075;-71
2023/12/30 14:17:11;;;;;;;;;;;11.90;99.90;;;;;;5086180;28;19924;-71
2023/12/30 14:19:39;;;;;;;;;;;11.90;99.90;;;;;;5086200;28;20451;-69
2023/12/30 14:22:07;;;;;;;;;;;11.80;99.90;;;;;;5086590;28;19924;-69
2023/12/30 14:24:34;;;;;;;;;;;12.00;99.90;;;;;;5085379;28;19993;-69
2023/12/30 14:27:00;;;;;;;;;;;12.00;99.90;;;;;;5086997;28;19932;-69